Time,TemperatureF,DewpointF,PressureIn,WindDirection,WindDirectionDegrees,WindSpeedMPH,WindSpeedGustMPH,Humidity,HourlyPrecipIn,Conditions,Clouds,dailyrainin,SoftwareType,DateUTC
2013-07-30 07:29:00,74.5,66.8,30.12,SW,229,0.0,1.0,77,0.00,,---,0.00,VWS V13.01,2013-07-30 12:29:00,
2013-07-30 07:31:00,67.4,64.1,30.13,SW,229,3.0,4.0,89,0.00,,---,0.00,VWS V13.01,2013-07-30 12:31:00,
2013-07-30 07:36:00,67.4,64.4,30.14,SW,229,1.0,5.0,90,0.03,,---,0.04,VWS V13.01,2013-07-30 12:36:00,
2013-07-30 07:41:00,67.2,64.5,30.13,SW,229,0.0,5.0,91,0.10,,---,0.10,VWS V13.01,2013-07-30 12:41:00,
2013-07-30 07:46:00,66.9,64.2,30.13,SW,229,0.0,5.0,91,0.10,,---,0.10,VWS V13.01,2013-07-30 12:46:00,
2013-07-30 07:51:00,66.8,64.4,30.14,SW,229,0.0,5.0,92,0.10,,---,0.10,VWS V13.01,2013-07-30 12:51:00,
2013-07-30 07:56:00,66.8,64.7,30.14,SW,229,0.0,5.0,93,0.10,,---,0.10,VWS V13.01,2013-07-30 12:56:00,
2013-07-30 08:01:00,66.9,65.1,30.14,SW,229,4.0,4.0,94,0.11,,---,0.11,VWS V13.01,2013-07-30 13:01:00,
2013-07-30 08:06:00,66.8,65.0,30.14,SW,229,3.0,5.0,94,0.12,,---,0.12,VWS V13.01,2013-07-30 13:06:00,
2013-07-30 08:11:00,66.7,64.9,30.14,SW,229,0.0,5.0,94,0.16,,---,0.16,VWS V13.01,2013-07-30 13:11:00,
2013-07-30 08:16:00,66.5,64.7,30.14,SW,229,2.0,5.0,94,0.17,,---,0.17,VWS V13.01,2013-07-30 13:16:00,
2013-07-30 08:21:00,66.5,64.7,30.14,SW,229,0.0,5.0,94,0.17,,---,0.17,VWS V13.01,2013-07-30 13:21:00,
2013-07-30 08:26:00,66.4,64.9,30.14,SW,229,0.0,5.0,95,0.17,,---,0.17,VWS V13.01,2013-07-30 13:26:00,
2013-07-30 08:31:00,66.4,64.9,30.13,SW,229,0.0,5.0,95,0.17,,---,0.17,VWS V13.01,2013-07-30 13:31:00,
2013-07-30 08:36:00,66.6,65.1,30.13,SW,229,0.0,0.0,95,0.17,,---,0.17,VWS V13.01,2013-07-30 13:36:00,
2013-07-30 08:41:00,66.8,65.3,30.13,SW,229,0.0,0.0,95,0.17,,---,0.17,VWS V13.01,2013-07-30 13:41:00,
2013-07-30 08:46:00,67.0,65.5,30.14,SW,229,0.0,0.0,95,0.17,,---,0.17,VWS V13.01,2013-07-30 13:46:00,
2013-07-30 08:51:00,67.3,66.1,30.14,SW,229,3.0,3.0,96,0.17,,---,0.17,VWS V13.01,2013-07-30 13:51:00,
2013-07-30 08:56:00,67.4,65.9,30.14,SW,229,3.0,3.0,95,0.17,,---,0.17,VWS V13.01,2013-07-30 13:56:00,
2013-07-30 09:01:00,67.3,65.8,30.13,SW,229,0.0,5.0,95,0.17,,---,0.17,VWS V13.01,2013-07-30 14:01:00,
2013-07-30 09:06:00,67.5,66.0,30.14,SW,229,0.0,0.0,95,0.06,,---,0.17,VWS V13.01,2013-07-30 14:06:00,
2013-07-30 09:11:00,67.6,66.4,30.14,SW,229,0.0,3.0,96,0.06,,---,0.17,VWS V13.01,2013-07-30 14:11:00,
2013-07-30 09:16:00,67.8,66.3,30.14,SW,229,0.0,3.0,95,0.06,,---,0.17,VWS V13.01,2013-07-30 14:16:00,
2013-07-30 09:21:00,68.0,66.5,30.14,SW,229,2.0,3.0,95,0.06,,---,0.17,VWS V13.01,2013-07-30 14:21:00,
2013-07-30 09:26:00,68.2,66.7,30.14,SW,229,0.0,3.0,95,0.06,,---,0.17,VWS V13.01,2013-07-30 14:26:00,
2013-07-30 09:31:00,68.3,66.8,30.14,SW,229,0.0,3.0,95,0.06,,---,0.17,VWS V13.01,2013-07-30 14:31:00,
2013-07-30 09:36:00,68.4,66.9,30.13,SW,229,0.0,0.0,95,0.00,,---,0.17,VWS V13.01,2013-07-30 14:36:00,
2013-07-30 09:41:00,68.4,66.9,30.13,SW,229,0.0,3.0,95,0.00,,---,0.17,VWS V13.01,2013-07-30 14:41:00,
2013-07-30 09:46:00,68.3,66.8,30.13,SW,229,0.0,4.0,95,0.00,,---,0.17,VWS V13.01,2013-07-30 14:46:00,
2013-07-30 09:50:00,68.5,67.0,30.13,SW,229,0.0,4.0,95,0.00,,---,0.17,VWS V13.01,2013-07-30 14:50:00,
2013-07-30 09:55:00,68.6,67.1,30.13,SW,229,0.0,4.0,95,0.00,,---,0.17,VWS V13.01,2013-07-30 14:55:00,
2013-07-30 10:00:00,68.6,67.1,30.13,SW,229,0.0,4.0,95,0.00,,---,0.17,VWS V13.01,2013-07-30 15:00:00,
2013-07-30 10:05:00,68.5,67.0,30.13,SW,229,4.0,4.0,95,0.01,,---,0.18,VWS V13.01,2013-07-30 15:05:00,
2013-07-30 10:10:00,68.5,67.0,30.13,SW,229,0.0,4.0,95,0.01,,---,0.18,VWS V13.01,2013-07-30 15:10:00,
2013-07-30 10:15:00,68.6,67.1,30.13,SW,229,3.0,5.0,95,0.01,,---,0.18,VWS V13.01,2013-07-30 15:15:00,
2013-07-30 10:20:00,68.7,66.9,30.12,SW,229,4.0,6.0,94,0.02,,---,0.19,VWS V13.01,2013-07-30 15:20:00,
2013-07-30 10:25:00,68.8,67.3,30.12,SW,229,4.0,6.0,95,0.02,,---,0.19,VWS V13.01,2013-07-30 15:25:00,
2013-07-30 10:30:00,68.9,67.4,30.12,SW,229,3.0,6.0,95,0.03,,---,0.20,VWS V13.01,2013-07-30 15:30:00,
2013-07-30 10:31:00,68.9,67.4,30.12,SW,229,3.0,6.0,95,0.03,,---,0.20,VWS V13.01,2013-07-30 15:31:00,
2013-07-30 10:36:00,68.9,67.4,30.12,SW,229,3.0,5.0,95,0.03,,---,0.20,VWS V13.01,2013-07-30 15:36:00,
2013-07-30 10:41:00,69.0,67.5,30.12,SW,229,0.0,5.0,95,0.04,,---,0.21,VWS V13.01,2013-07-30 15:41:00,
2013-07-30 10:46:00,69.1,67.6,30.12,SW,229,0.0,5.0,95,0.04,,---,0.21,VWS V13.01,2013-07-30 15:46:00,
2013-07-30 10:51:00,69.2,67.4,30.12,SW,229,3.0,6.0,94,0.04,,---,0.21,VWS V13.01,2013-07-30 15:51:00,
2013-07-30 10:56:00,69.4,67.6,30.12,SW,229,0.0,6.0,94,0.04,,---,0.21,VWS V13.01,2013-07-30 15:56:00,
2013-07-30 11:01:00,69.6,68.1,30.12,SW,229,0.0,6.0,95,0.04,,---,0.21,VWS V13.01,2013-07-30 16:01:00,
2013-07-30 11:06:00,69.6,67.8,30.12,SW,229,0.0,3.0,94,0.04,,---,0.21,VWS V13.01,2013-07-30 16:06:00,
2013-07-30 11:11:00,69.7,67.9,30.12,SW,229,2.0,3.0,94,0.04,,---,0.21,VWS V13.01,2013-07-30 16:11:00,
2013-07-30 11:16:00,69.7,67.9,30.12,SW,229,0.0,4.0,94,0.04,,---,0.21,VWS V13.01,2013-07-30 16:16:00,
2013-07-30 11:21:00,69.7,67.9,30.12,SW,229,2.0,4.0,94,0.04,,---,0.21,VWS V13.01,2013-07-30 16:21:00,
2013-07-30 11:26:00,69.9,68.1,30.12,SW,229,3.0,4.0,94,0.05,,---,0.22,VWS V13.01,2013-07-30 16:26:00,
2013-07-30 11:31:00,69.8,68.0,30.12,SW,229,3.0,5.0,94,0.05,,---,0.22,VWS V13.01,2013-07-30 16:31:00,
2013-07-30 11:36:00,69.8,68.0,30.12,SW,229,0.0,4.0,94,0.02,,---,0.22,VWS V13.01,2013-07-30 16:36:00,
2013-07-30 11:41:00,69.8,68.0,30.12,SW,229,3.0,4.0,94,0.02,,---,0.22,VWS V13.01,2013-07-30 16:41:00,
2013-07-30 11:46:00,69.8,68.0,30.13,SW,229,2.0,4.0,94,0.02,,---,0.22,VWS V13.01,2013-07-30 16:46:00,
2013-07-30 11:51:00,69.8,68.0,30.13,SW,229,3.0,4.0,94,0.03,,---,0.23,VWS V13.01,2013-07-30 16:51:00,
2013-07-30 11:56:00,70.0,68.2,30.13,SW,229,0.0,4.0,94,0.03,,---,0.23,VWS V13.01,2013-07-30 16:56:00,
2013-07-30 12:01:00,70.1,68.3,30.13,SW,229,0.0,4.0,94,0.03,,---,0.23,VWS V13.01,2013-07-30 17:01:00,
2013-07-30 12:06:00,70.1,68.3,30.14,SW,229,0.0,0.0,94,0.02,,---,0.23,VWS V13.01,2013-07-30 17:06:00,
2013-07-30 12:11:00,70.3,68.5,30.14,SW,229,0.0,4.0,94,0.03,,---,0.24,VWS V13.01,2013-07-30 17:11:00,
2013-07-30 12:15:00,70.4,68.6,30.13,SW,229,0.0,4.0,94,0.03,,---,0.24,VWS V13.01,2013-07-30 17:15:00,
2013-07-30 12:20:00,70.5,68.7,30.13,SW,229,0.0,4.0,94,0.04,,---,0.25,VWS V13.01,2013-07-30 17:20:00,
2013-07-30 12:25:00,70.7,68.9,30.14,SW,229,0.0,4.0,94,0.04,,---,0.25,VWS V13.01,2013-07-30 17:25:00,
2013-07-30 12:30:00,70.9,69.1,30.14,SW,229,0.0,4.0,94,0.04,,---,0.25,VWS V13.01,2013-07-30 17:30:00,
2013-07-30 12:35:00,71.0,69.2,30.14,SW,229,0.0,3.0,94,0.04,,---,0.26,VWS V13.01,2013-07-30 17:35:00,
2013-07-30 12:40:00,71.1,69.3,30.13,SW,229,0.0,3.0,94,0.04,,---,0.26,VWS V13.01,2013-07-30 17:40:00,
2013-07-30 12:45:00,71.1,69.3,30.13,SW,229,0.0,3.0,94,0.05,,---,0.27,VWS V13.01,2013-07-30 17:45:00,
2013-07-30 12:50:00,71.1,69.3,30.13,SW,229,0.0,3.0,94,0.05,,---,0.28,VWS V13.01,2013-07-30 17:50:00,
2013-07-30 12:55:00,71.1,69.3,30.13,SW,229,0.0,3.0,94,0.06,,---,0.28,VWS V13.01,2013-07-30 17:55:00,
2013-07-30 13:00:00,71.1,69.3,30.12,SW,229,0.0,3.0,94,0.06,,---,0.28,VWS V13.01,2013-07-30 18:00:00,
2013-07-30 13:05:00,71.2,69.4,30.12,SW,229,0.0,0.0,94,0.06,,---,0.29,VWS V13.01,2013-07-30 18:05:00,
2013-07-30 13:10:00,71.3,69.5,30.12,SW,229,0.0,1.0,94,0.06,,---,0.29,VWS V13.01,2013-07-30 18:10:00,
2013-07-30 13:15:00,71.3,69.5,30.12,SW,229,2.0,3.0,94,0.06,,---,0.29,VWS V13.01,2013-07-30 18:15:00,
2013-07-30 13:20:00,71.5,70.0,30.12,SW,229,0.0,3.0,95,0.06,,---,0.29,VWS V13.01,2013-07-30 18:20:00,
2013-07-30 13:25:00,71.6,70.1,30.13,SW,229,0.0,3.0,95,0.07,,---,0.30,VWS V13.01,2013-07-30 18:25:00,
2013-07-30 13:30:00,71.7,70.2,30.12,SW,229,1.0,3.0,95,0.07,,---,0.30,VWS V13.01,2013-07-30 18:30:00,
2013-07-30 16:39:00,71.8,70.6,30.05,South,189,6.0,6.0,96,0.05,,---,0.72,VWS V13.01,2013-07-30 21:39:00,
2013-07-30 16:44:00,71.8,70.6,30.05,South,189,3.0,9.0,96,0.47,,---,0.72,VWS V13.01,2013-07-30 21:44:00,
2013-07-30 16:49:00,71.9,70.7,30.06,South,188,4.0,9.0,96,0.47,,---,0.72,VWS V13.01,2013-07-30 21:49:00,
2013-07-30 16:54:00,72.0,70.8,30.05,South,189,2.0,9.0,96,0.47,,---,0.72,VWS V13.01,2013-07-30 21:54:00,
2013-07-30 16:59:00,72.1,70.9,30.05,South,188,4.0,9.0,96,0.47,,---,0.72,VWS V13.01,2013-07-30 21:59:00,
2013-07-30 17:04:00,72.1,70.9,30.06,South,189,6.0,6.0,96,0.42,,---,0.72,VWS V13.01,2013-07-30 22:04:00,
2013-07-30 17:09:00,72.1,70.9,30.05,South,189,6.0,6.0,96,0.42,,---,0.72,VWS V13.01,2013-07-30 22:09:00,
2013-07-30 17:14:00,72.1,70.9,30.05,South,189,3.0,6.0,96,0.42,,---,0.72,VWS V13.01,2013-07-30 22:14:00,
2013-07-30 17:19:00,72.2,71.0,30.05,South,189,2.0,6.0,96,0.42,,---,0.72,VWS V13.01,2013-07-30 22:19:00,
2013-07-30 17:24:00,72.2,71.0,30.07,South,188,4.0,6.0,96,0.42,,---,0.72,VWS V13.01,2013-07-30 22:24:00,
2013-07-30 17:29:00,72.3,71.4,30.07,South,188,0.0,6.0,97,0.43,,---,0.73,VWS V13.01,2013-07-30 22:29:00,
2013-07-30 17:34:00,72.4,71.2,30.07,South,189,0.0,0.0,96,0.44,,---,0.74,VWS V13.01,2013-07-30 22:34:00,
2013-07-30 17:39:00,72.4,71.2,30.07,South,189,0.0,0.0,96,0.45,,---,0.75,VWS V13.01,2013-07-30 22:39:00,
2013-07-30 17:44:00,72.4,71.2,30.07,South,189,0.0,0.0,96,0.46,,---,0.76,VWS V13.01,2013-07-30 22:44:00,
2013-07-30 17:49:00,72.4,71.2,30.07,South,189,0.0,0.0,96,0.47,,---,0.77,VWS V13.01,2013-07-30 22:49:00,
2013-07-30 17:54:00,72.4,71.2,30.07,South,188,0.0,0.0,96,0.47,,---,0.77,VWS V13.01,2013-07-30 22:54:00,
2013-07-30 17:59:00,72.3,71.1,30.07,South,189,0.0,0.0,96,0.48,,---,0.78,VWS V13.01,2013-07-30 22:59:00,
2013-07-30 18:04:00,72.2,71.0,30.06,South,189,4.0,4.0,96,0.07,,---,0.79,VWS V13.01,2013-07-30 23:04:00,
2013-07-30 18:09:00,72.2,71.0,30.04,South,188,3.0,5.0,96,0.08,,---,0.80,VWS V13.01,2013-07-30 23:09:00,
2013-07-30 18:14:00,71.9,70.7,30.04,South,188,3.0,10.0,96,0.08,,---,0.80,VWS V13.01,2013-07-30 23:14:00,
2013-07-30 18:19:00,71.6,70.4,30.03,South,189,3.0,10.0,96,0.08,,---,0.80,VWS V13.01,2013-07-30 23:19:00,
2013-07-30 18:24:00,71.7,70.5,30.04,South,189,3.0,10.0,96,0.08,,---,0.80,VWS V13.01,2013-07-30 23:24:00,
2013-07-30 18:29:00,71.8,70.6,30.03,South,189,5.0,10.0,96,0.08,,---,0.80,VWS V13.01,2013-07-30 23:29:00,
2013-07-30 18:34:00,71.9,70.7,30.02,South,189,3.0,7.0,96,0.07,,---,0.80,VWS V13.01,2013-07-30 23:34:00,